Time;durP1;ratioP1;P1;durP2;ratioP2;P2;SDS_P1;SDS_P2;PMS_P1;PMS_P2;Temp;Humidity;BMP_temperature;BMP_pressure;BME280_temperature;BME280_humidity;BME280_pressure;Samples;Min_cycle;Max_cycle;Signal;HPM_P1;HPM_P2
2021/12/26 00:00:47;;;;;;;8.98;3.58;;;-7.10;99.90;;;;;;4953321;28;20137;-83
2021/12/26 00:03:13;;;;;;;6.97;3.83;;;-7.10;99.90;;;;;;4935616;28;20568;-83
2021/12/26 00:05:39;;;;;;;9.52;4.03;;;-7.10;99.90;;;;;;4952826;28;20399;-83
2021/12/26 00:08:05;;;;;;;8.23;3.08;;;-7.20;99.90;;;;;;4936547;28;20086;-83
2021/12/26 00:10:31;;;;;;;8.32;3.22;;;-7.30;99.90;;;;;;4951819;28;20549;-83
2021/12/26 00:12:57;;;;;;;7.68;3.53;;;-7.20;99.90;;;;;;4936949;28;20038;-83
2021/12/26 00:15:23;;;;;;;6.18;2.88;;;-7.20;99.90;;;;;;4952422;28;20043;-83
2021/12/26 00:17:49;;;;;;;11.05;3.97;;;-7.20;99.90;;;;;;4951491;28;20055;-83
2021/12/26 00:20:16;;;;;;;6.93;3.13;;;-7.20;99.90;;;;;;4936459;28;20043;-83
2021/12/26 00:22:43;;;;;;;7.55;3.50;;;-5.60;99.90;;;;;;4937201;28;20455;-83
2021/12/26 00:25:10;;;;;;;9.32;3.70;;;-7.10;99.90;;;;;;4952029;28;20054;-83
2021/12/26 00:27:36;;;;;;;7.28;3.67;;;-7.10;99.90;;;;;;4952034;28;20042;-83
2021/12/26 00:30:07;;;;;;;10.40;3.80;;;-7.20;99.90;;;;;;4936902;28;20043;-82
2021/12/26 00:32:33;;;;;;;7.40;3.58;;;-7.20;99.90;;;;;;4934715;28;20361;-83
2021/12/26 00:34:58;;;;;;;9.25;3.60;;;-7.30;99.90;;;;;;4953084;28;20141;-83
2021/12/26 00:37:24;;;;;;;9.18;3.80;;;-7.30;99.90;;;;;;4935854;28;20097;-82
2021/12/26 00:39:49;;;;;;;9.75;3.75;;;-7.40;99.90;;;;;;4952297;28;20517;-83
2021/12/26 00:42:15;;;;;;;7.97;4.00;;;-7.40;99.90;;;;;;4952501;28;20472;-83
2021/12/26 00:44:41;;;;;;;9.07;4.38;;;-7.40;99.90;;;;;;4936009;28;20047;-83
2021/12/26 00:47:08;;;;;;;8.25;3.70;;;-7.40;99.90;;;;;;4950884;28;20138;-83
2021/12/26 00:49:34;;;;;;;13.45;4.22;;;-7.40;99.90;;;;;;4935493;28;20219;-83
2021/12/26 00:52:00;;;;;;;9.90;3.85;;;-7.30;99.90;;;;;;4952825;28;20104;-83
2021/12/26 00:54:26;;;;;;;11.15;4.03;;;-7.30;99.90;;;;;;4934945;28;20380;-83
2021/12/26 00:56:52;;;;;;;14.50;4.07;;;-7.30;99.90;;;;;;4936699;28;20043;-83
2021/12/26 00:59:18;;;;;;;11.03;3.87;;;-7.20;99.90;;;;;;4950625;28;20486;-83
2021/12/26 01:01:44;;;;;;;7.75;3.10;;;-7.20;99.90;;;;;;4936363;28;20043;-83
2021/12/26 01:04:11;;;;;;;7.85;3.28;;;-7.10;99.90;;;;;;4951665;28;20097;-83
2021/12/26 01:06:38;;;;;;;8.40;2.88;;;-7.10;99.90;;;;;;4934556;28;20495;-83
2021/12/26 01:09:07;;;;;;;6.60;2.30;;;-7.00;99.90;;;;;;4952195;28;20082;-83
2021/12/26 01:11:37;;;;;;;6.00;2.83;;;-6.90;99.90;;;;;;4935302;28;20047;-84
2021/12/26 01:14:08;;;;;;;4.93;2.38;;;-6.80;99.90;;;;;;4951579;28;20387;-83
2021/12/26 01:16:35;;;;;;;9.30;3.15;;;-6.80;99.90;;;;;;4951352;28;20487;-83
2021/12/26 01:19:14;;;;;;;5.65;2.45;;;-6.70;99.90;;;;;;4935275;28;20548;-83
2021/12/26 01:21:41;;;;;;;5.57;2.80;;;-6.70;99.90;;;;;;4951691;28;20490;-83
2021/12/26 01:24:10;;;;;;;6.85;2.80;;;-6.70;99.90;;;;;;4952027;28;20047;-85
2021/12/26 01:26:36;;;;;;;11.77;2.72;;;-6.60;99.90;;;;;;4935751;28;20134;-84
2021/12/26 01:29:03;;;;;;;7.07;2.75;;;-6.60;99.90;;;;;;4951704;28;20104;-84
2021/12/26 01:31:29;;;;;;;5.38;2.28;;;-6.60;99.90;;;;;;4951596;28;20047;-84
2021/12/26 01:33:59;;;;;;;7.18;2.72;;;-6.60;99.90;;;;;;4935470;28;20400;-83
2021/12/26 01:36:25;;;;;;;5.25;2.45;;;-6.60;99.90;;;;;;4934351;28;20100;-83
2021/12/26 01:38:51;;;;;;;7.78;2.70;;;-6.60;99.90;;;;;;4952175;28;20513;-83
2021/12/26 01:41:18;;;;;;;8.57;2.75;;;-5.50;99.90;;;;;;4935222;28;20507;-83
2021/12/26 01:43:47;;;;;;;6.07;2.55;;;-6.60;99.90;;;;;;4935169;28;20134;-83
2021/12/26 01:46:15;;;;;;;8.55;3.38;;;-6.60;99.90;;;;;;4951760;28;20050;-84
2021/12/26 01:48:41;;;;;;;9.07;3.22;;;-6.60;99.90;;;;;;4949970;28;20051;-84
2021/12/26 01:51:06;;;;;;;7.47;3.50;;;-6.70;99.90;;;;;;4936726;28;20050;-83
2021/12/26 01:53:39;;;;;;;6.82;3.05;;;-6.70;99.90;;;;;;4934694;28;20411;-84
2021/12/26 01:56:06;;;;;;;;;;;-6.70;99.90;;;;;;4951740;28;20495;-83
2021/12/26 01:58:32;;;;;;;7.35;2.72;;;-6.70;99.90;;;;;;4950810;28;19980;-84
2021/12/26 02:01:01;;;;;;;5.85;2.40;;;-6.70;99.90;;;;;;4952233;28;20062;-84
2021/12/26 02:03:27;;;;;;;7.07;2.67;;;-6.70;99.90;;;;;;4949510;28;20620;-83
2021/12/26 02:05:54;;;;;;;6.30;2.75;;;-6.80;99.90;;;;;;4951798;28;20054;-83
2021/12/26 02:08:20;;;;;;;6.72;2.85;;;-6.90;99.90;;;;;;4950774;28;20050;-83
2021/12/26 02:10:46;;;;;;;3.63;1.92;;;-6.90;99.90;;;;;;4951562;28;20059;-82
2021/12/26 02:13:12;;;;;;;5.38;2.65;;;-6.90;99.90;;;;;;4939090;28;20049;-83
2021/12/26 02:15:38;;;;;;;5.45;2.28;;;-6.90;99.90;;;;;;4954956;28;20494;-83
2021/12/26 02:18:06;;;;;;;9.10;2.90;;;-6.90;99.90;;;;;;4953980;28;20051;-83
2021/12/26 02:21:00;;;;;;;6.85;2.53;;;-6.90;99.90;;;;;;4954439;28;20074;-83
2021/12/26 02:23:32;;;;;;;8.25;2.28;;;-6.90;99.90;;;;;;4938795;28;20043;-83
2021/12/26 02:28:37;;;;;;;5.78;2.15;;;-7.00;99.90;;;;;;4954554;28;20960;-83
2021/12/26 02:31:04;;;;;;;6.57;3.33;;;-7.00;99.90;;;;;;4955059;28;20047;-83
2021/12/26 02:33:30;;;;;;;8.70;2.72;;;-7.00;99.90;;;;;;4937340;28;20122;-83
2021/12/26 02:35:56;;;;;;;5.78;2.35;;;-7.00;99.90;;;;;;4955519;28;20471;-83
2021/12/26 02:38:22;;;;;;;7.10;2.88;;;-7.00;99.90;;;;;;4953525;28;20072;-83
2021/12/26 02:40:51;;;;;;;6.55;3.00;;;-7.00;99.90;;;;;;4954651;28;20042;-83
2021/12/26 02:43:19;;;;;;;7.20;2.92;;;-7.00;99.90;;;;;;4954518;28;20406;-83
2021/12/26 02:45:45;;;;;;;8.82;3.17;;;-7.10;99.90;;;;;;4937881;28;20517;-83
2021/12/26 02:48:12;;;;;;;8.13;2.75;;;-7.10;99.90;;;;;;4937817;28;20502;-83
2021/12/26 02:50:41;;;;;;;6.90;2.45;;;-6.60;99.90;;;;;;4937700;28;20454;-83
2021/12/26 02:53:09;;;;;;;7.03;2.60;;;-7.20;99.90;;;;;;4953919;28;20066;-83
2021/12/26 02:55:35;;;;;;;7.00;2.92;;;-7.10;99.90;;;;;;4953802;28;20069;-83
2021/12/26 02:58:04;;;;;;;6.28;2.80;;;-7.20;99.90;;;;;;4954374;28;20498;-83
2021/12/26 03:00:33;;;;;;;6.65;2.20;;;-7.20;99.90;;;;;;4952878;28;20509;-83
2021/12/26 03:03:02;;;;;;;7.72;2.40;;;-7.20;99.90;;;;;;4953835;28;20043;-83
2021/12/26 03:05:31;;;;;;;4.88;2.65;;;-7.10;99.90;;;;;;4953482;28;20051;-83
2021/12/26 03:07:56;;;;;;;6.77;2.60;;;-7.10;99.90;;;;;;4937373;28;20051;-83
2021/12/26 03:10:25;;;;;;;7.30;2.20;;;-7.10;99.90;;;;;;4953965;28;20479;-83
2021/12/26 03:12:54;;;;;;;5.40;2.07;;;-7.10;99.90;;;;;;4953534;28;20498;-82
2021/12/26 03:15:19;;;;;;;4.82;1.80;;;-7.10;99.90;;;;;;4953540;28;20058;-83
2021/12/26 03:17:46;;;;;;;5.77;2.63;;;-7.10;99.90;;;;;;4937454;28;20055;-83
2021/12/26 03:20:14;;;;;;;5.13;2.00;;;-7.10;99.90;;;;;;4937290;28;20121;-83
2021/12/26 03:22:41;;;;;;;5.80;2.65;;;-7.10;99.90;;;;;;4937435;28;20042;-83
2021/12/26 03:25:12;;;;;;;5.97;2.55;;;-7.10;99.90;;;;;;4954061;28;20055;-83
2021/12/26 03:27:38;;;;;;;4.65;2.13;;;-7.00;99.90;;;;;;4951950;28;20495;-83
2021/12/26 03:30:09;;;;;;;5.13;1.90;;;-7.10;99.90;;;;;;4953915;28;20188;-83
2021/12/26 03:32:35;;;;;;;7.90;2.92;;;-7.10;99.90;;;;;;4936056;28;20054;-83
2021/12/26 03:35:01;;;;;;;6.27;2.20;;;-7.10;99.90;;;;;;4953582;28;20038;-84
2021/12/26 03:37:28;;;;;;;4.40;2.25;;;-7.10;99.90;;;;;;4952961;28;20051;-83
2021/12/26 03:39:55;;;;;;;7.27;2.13;;;-7.10;99.90;;;;;;4954293;28;20554;-83
2021/12/26 03:42:21;;;;;;;6.40;2.10;;;-7.10;99.90;;;;;;4951978;28;20050;-83
2021/12/26 03:44:48;;;;;;;7.13;2.37;;;-7.10;99.90;;;;;;4953438;28;20143;-83
2021/12/26 03:47:14;;;;;;;4.82;2.25;;;-7.10;99.90;;;;;;4953060;28;20047;-83
2021/12/26 03:49:40;;;;;;;6.70;2.20;;;-7.10;99.90;;;;;;4936545;28;20110;-82
2021/12/26 03:52:06;;;;;;;5.70;2.03;;;-7.10;99.90;;;;;;4953188;28;20534;-83
2021/12/26 03:54:32;;;;;;;5.82;1.88;;;-7.10;99.90;;;;;;4952664;28;20050;-82
2021/12/26 03:56:58;;;;;;;6.13;2.40;;;-6.70;99.90;;;;;;4952512;28;20089;-82
2021/12/26 03:59:24;;;;;;;5.20;2.15;;;-7.20;99.90;;;;;;4952741;28;20042;-82
2021/12/26 04:01:50;;;;;;;9.13;2.40;;;-7.10;99.90;;;;;;4952784;28;20046;-83
2021/12/26 04:04:16;;;;;;;11.07;2.73;;;-7.20;99.90;;;;;;4952204;28;20646;-83
2021/12/26 04:06:41;;;;;;;7.47;2.03;;;-7.20;99.90;;;;;;4936798;28;20581;-83
2021/12/26 04:09:08;;;;;;;5.07;1.90;;;-7.20;99.90;;;;;;4952189;28;20055;-83
2021/12/26 04:11:36;;;;;;;4.80;2.33;;;-7.20;99.90;;;;;;4952716;28;20125;-83
2021/12/26 04:14:02;;;;;;;5.78;2.08;;;-7.20;99.90;;;;;;4936431;28;20054;-83
2021/12/26 04:16:28;;;;;;;5.80;2.22;;;-7.20;99.90;;;;;;4935570;28;20485;-84
2021/12/26 04:18:54;;;;;;;5.00;2.47;;;-7.20;99.90;;;;;;4952021;28;20043;-83
2021/12/26 04:21:19;;;;;;;7.38;2.28;;;-7.20;99.90;;;;;;4936665;28;20513;-83
2021/12/26 04:23:45;;;;;;;4.63;2.03;;;-7.20;99.90;;;;;;4952208;28;20561;-83
2021/12/26 04:26:11;;;;;;;3.78;1.85;;;-7.20;99.90;;;;;;4952601;28;20043;-82
2021/12/26 04:28:36;;;;;;;5.20;2.40;;;-7.20;99.90;;;;;;4952446;28;20203;-83
2021/12/26 04:31:02;;;;;;;5.83;2.00;;;-7.20;99.90;;;;;;4935646;28;20487;-83
2021/12/26 04:33:28;;;;;;;7.60;2.00;;;-7.20;99.90;;;;;;4950489;28;20117;-82
2021/12/26 04:35:54;;;;;;;6.15;2.58;;;-7.20;99.90;;;;;;4952657;28;20047;-83
2021/12/26 04:38:19;;;;;;;5.88;2.22;;;-7.20;99.90;;;;;;4950685;28;20053;-83
2021/12/26 04:40:45;;;;;;;8.52;2.80;;;-7.20;99.90;;;;;;4953028;28;20548;-83
2021/12/26 04:43:11;;;;;;;7.63;2.17;;;-7.20;99.90;;;;;;4936055;28;20135;-83
2021/12/26 04:45:37;;;;;;;8.20;2.10;;;-7.20;99.90;;;;;;4935485;28;20502;-83
2021/12/26 04:48:03;;;;;;;5.20;2.33;;;-7.30;99.90;;;;;;4951601;28;20101;-82
2021/12/26 04:50:30;;;;;;;5.03;2.10;;;-7.30;99.90;;;;;;4951599;28;20054;-83
2021/12/26 04:52:56;;;;;;;5.13;2.38;;;-7.30;99.90;;;;;;4951566;28;20043;-83
2021/12/26 04:55:24;;;;;;;6.07;1.92;;;-7.30;99.90;;;;;;4935500;28;20050;-83
2021/12/26 04:57:51;;;;;;;8.07;2.17;;;-7.30;99.90;;;;;;4936246;28;20112;-82
2021/12/26 05:00:20;;;;;;;7.10;2.57;;;-7.40;99.90;;;;;;4934939;28;20062;-83
2021/12/26 05:02:47;;;;;;;7.33;2.73;;;-7.40;99.90;;;;;;4935655;28;20051;-83
2021/12/26 05:05:14;;;;;;;5.35;2.40;;;-7.40;99.90;;;;;;4952344;28;20054;-83
2021/12/26 05:07:42;;;;;;;4.30;2.03;;;-7.30;99.90;;;;;;4934666;28;20061;-83
2021/12/26 05:10:10;;;;;;;5.75;2.10;;;-7.30;99.90;;;;;;4936253;28;20138;-83
2021/12/26 05:12:36;;;;;;;6.63;2.55;;;-7.30;99.90;;;;;;4950209;28;20109;-83
2021/12/26 05:15:04;;;;;;;5.65;2.30;;;-7.30;99.90;;;;;;4952167;28;20130;-83
2021/12/26 05:17:30;;;;;;;6.45;2.40;;;-7.30;99.90;;;;;;4950482;28;20078;-83
2021/12/26 05:19:56;;;;;;;6.45;2.30;;;-7.30;99.90;;;;;;4935373;28;20043;-83
2021/12/26 05:22:22;;;;;;;4.05;1.92;;;-7.30;99.90;;;;;;4951280;28;20047;-83
2021/12/26 05:24:48;;;;;;;5.15;1.77;;;-7.20;99.90;;;;;;4951988;28;20058;-84
2021/12/26 05:27:15;;;;;;;4.93;1.75;;;-7.20;99.90;;;;;;4951407;28;20050;-83
2021/12/26 05:29:40;;;;;;;5.43;1.90;;;-7.20;99.90;;;;;;4952315;28;20050;-83
2021/12/26 05:32:07;;;;;;;4.32;1.85;;;-7.10;99.90;;;;;;4951295;28;20876;-83
2021/12/26 05:34:33;;;;;;;4.88;2.10;;;-7.00;99.90;;;;;;4934364;28;20050;-83
2021/12/26 05:36:59;;;;;;;4.93;2.00;;;-7.10;99.90;;;;;;4952160;28;20546;-83
2021/12/26 05:39:25;;;;;;;3.80;1.80;;;-7.00;99.90;;;;;;4951807;28;20126;-83
2021/12/26 05:41:51;;;;;;;7.17;2.77;;;-7.10;99.90;;;;;;4951070;28;20039;-83
2021/12/26 05:44:16;;;;;;;5.82;2.40;;;-7.00;99.90;;;;;;4951443;28;20585;-83
2021/12/26 05:46:42;;;;;;;5.60;2.40;;;-7.10;99.90;;;;;;4955234;28;20142;-83
2021/12/26 05:49:08;;;;;;;5.90;2.10;;;-7.10;99.90;;;;;;4938523;28;20065;-83
2021/12/26 05:51:34;;;;;;;6.95;2.47;;;-7.10;99.90;;;;;;4955121;28;20486;-83
2021/12/26 05:54:00;;;;;;;6.77;2.87;;;-7.20;99.90;;;;;;4939305;28;20050;-83
2021/12/26 05:56:25;;;;;;;6.03;2.08;;;-7.20;99.90;;;;;;4954492;28;20122;-83
2021/12/26 05:58:51;;;;;;;6.90;3.53;;;-7.20;99.90;;;;;;4972345;28;20054;-83
2021/12/26 06:01:17;;;;;;;6.63;2.23;;;-7.20;99.90;;;;;;4954952;28;20047;-83
2021/12/26 06:03:42;;;;;;;4.05;2.40;;;-7.20;99.90;;;;;;4954086;28;20035;-83
2021/12/26 06:06:08;;;;;;;8.30;3.05;;;-7.20;99.90;;;;;;4955037;28;20499;-83
2021/12/26 06:08:34;;;;;;;4.93;2.10;;;-7.20;99.90;;;;;;4938615;28;20050;-83
2021/12/26 06:11:00;;;;;;;5.40;2.30;;;-7.30;99.90;;;;;;4939039;28;20054;-82
2021/12/26 06:13:26;;;;;;;5.00;2.57;;;-7.30;99.90;;;;;;4938680;28;20398;-83
2021/12/26 06:15:51;;;;;;;5.40;2.50;;;-7.30;99.90;;;;;;4954587;28;20047;-83
2021/12/26 06:18:17;;;;;;;5.07;2.35;;;-7.30;99.90;;;;;;4953563;28;20054;-82
2021/12/26 06:20:43;;;;;;;6.13;2.97;;;-7.40;99.90;;;;;;4955304;28;20061;-83
2021/12/26 06:23:09;;;;;;;6.50;2.35;;;-7.40;99.90;;;;;;4954025;28;20051;-82
2021/12/26 06:25:35;;;;;;;7.47;2.53;;;-7.40;99.90;;;;;;4954451;28;20059;-83
2021/12/26 06:28:01;;;;;;;4.83;2.33;;;-7.40;99.90;;;;;;4955243;28;20046;-83
2021/12/26 06:30:27;;;;;;;5.88;2.78;;;-7.40;99.90;;;;;;4937520;28;20047;-83
2021/12/26 06:32:53;;;;;;;6.17;2.63;;;-7.40;99.90;;;;;;4954465;28;20061;-83
2021/12/26 06:35:19;;;;;;;5.33;2.43;;;-7.50;99.90;;;;;;4954466;28;20499;-82
2021/12/26 06:37:44;;;;;;;5.00;2.38;;;-7.40;99.90;;;;;;4954240;28;20066;-83
2021/12/26 06:40:12;;;;;;;5.30;2.50;;;-7.40;99.90;;;;;;4954962;28;20043;-83
2021/12/26 06:42:41;;;;;;;5.47;2.50;;;-7.40;99.90;;;;;;4953534;28;20073;-82
2021/12/26 06:45:09;;;;;;;5.90;2.97;;;-7.50;99.90;;;;;;4953990;28;20069;-83
2021/12/26 06:47:36;;;;;;;8.13;2.77;;;-7.50;99.90;;;;;;4952979;28;20053;-83
2021/12/26 06:50:04;;;;;;;5.13;2.33;;;-7.50;99.90;;;;;;4938933;28;20447;-83
2021/12/26 06:52:29;;;;;;;10.17;3.03;;;-7.50;99.90;;;;;;4952831;28;20047;-82
2021/12/26 06:54:55;;;;;;;9.57;3.10;;;-7.50;99.90;;;;;;4955090;28;20131;-83
2021/12/26 06:57:21;;;;;;;5.90;3.00;;;-7.50;99.90;;;;;;4953006;28;20054;-83
2021/12/26 06:59:46;;;;;;;7.03;2.93;;;-7.50;99.90;;;;;;4953821;28;20128;-83
2021/12/26 07:02:12;;;;;;;4.75;2.65;;;-7.50;99.90;;;;;;4953850;28;20432;-83
2021/12/26 07:04:38;;;;;;;4.73;2.40;;;-7.50;99.90;;;;;;4953310;28;20119;-83
2021/12/26 07:07:04;;;;;;;5.37;2.63;;;-7.70;99.90;;;;;;4953370;28;20478;-83
2021/12/26 07:09:30;;;;;;;7.40;2.73;;;-7.60;99.90;;;;;;4953535;28;20053;-82
2021/12/26 07:11:56;;;;;;;7.03;2.80;;;-7.60;99.90;;;;;;4953793;28;20042;-83
2021/12/26 07:14:22;;;;;;;6.83;3.23;;;-7.60;99.90;;;;;;4937530;28;20561;-82
2021/12/26 07:16:47;;;;;;;7.50;3.00;;;-7.60;99.90;;;;;;4953282;28;20105;-82
2021/12/26 07:19:13;;;;;;;4.95;3.00;;;-7.60;99.90;;;;;;4952857;28;20042;-83
2021/12/26 07:21:40;;;;;;;6.90;3.37;;;-7.60;99.90;;;;;;4937958;28;20065;-83
2021/12/26 07:24:06;;;;;;;7.57;3.05;;;-6.80;99.90;;;;;;4953531;28;20054;-82
2021/12/26 07:26:32;;;;;;;7.10;2.97;;;-7.60;99.90;;;;;;4952642;28;20133;-83
2021/12/26 07:28:58;;;;;;;8.00;3.27;;;-7.50;99.90;;;;;;4943659;28;20209;-82
2021/12/26 07:31:23;;;;;;;7.23;2.93;;;-7.20;99.90;;;;;;4969187;28;20049;-82
2021/12/26 07:33:49;;;;;;;6.63;2.83;;;-7.50;99.90;;;;;;4954412;28;20042;-83
2021/12/26 07:36:15;;;;;;;5.90;3.20;;;-7.50;99.90;;;;;;4971839;28;20051;-81
2021/12/26 07:38:40;;;;;;;7.50;3.00;;;-7.50;99.90;;;;;;4956145;28;20148;-82
2021/12/26 07:41:06;;;;;;;6.40;3.40;;;-7.50;99.90;;;;;;4972107;28;20617;-82
2021/12/26 07:43:32;;;;;;;6.72;3.10;;;-7.40;99.90;;;;;;4956102;28;20583;-83
2021/12/26 07:45:58;;;;;;;7.57;3.03;;;-7.40;99.90;;;;;;4972612;28;20410;-82
2021/12/26 07:48:23;;;;;;;7.40;3.43;;;-7.40;99.90;;;;;;4970556;28;20124;-82
2021/12/26 07:50:49;;;;;;;7.00;3.37;;;-7.40;99.90;;;;;;4973293;28;20394;-82
2021/12/26 07:53:15;;;;;;;7.45;3.40;;;-7.50;99.90;;;;;;4972114;28;20498;-82
2021/12/26 07:55:40;;;;;;;7.77;3.97;;;-6.90;99.90;;;;;;4971999;28;20046;-83
2021/12/26 07:58:06;;;;;;;6.70;3.53;;;-7.40;99.90;;;;;;4973000;28;20054;-83
2021/12/26 08:00:33;;;;;;;5.90;3.20;;;-7.50;99.90;;;;;;4971990;28;20062;-83
2021/12/26 08:03:00;;;;;;;10.13;3.83;;;-7.50;99.90;;;;;;4971634;28;20046;-83
2021/12/26 08:05:26;;;;;;;10.00;3.63;;;-7.50;99.90;;;;;;4971590;28;20520;-82
2021/12/26 08:07:51;;;;;;;5.13;3.25;;;-7.50;99.90;;;;;;4952710;28;20161;-81
2021/12/26 08:10:18;;;;;;;8.23;3.75;;;-7.40;99.90;;;;;;4951317;28;20498;-82
2021/12/26 08:12:43;;;;;;;8.63;4.20;;;-7.40;99.90;;;;;;4952760;28;20039;-81
2021/12/26 08:15:10;;;;;;;6.97;3.70;;;-7.40;99.90;;;;;;4953100;28;20074;-82
2021/12/26 08:17:36;;;;;;;9.73;4.03;;;-7.40;99.90;;;;;;4950905;28;20046;-82
2021/12/26 08:20:03;;;;;;;7.68;4.50;;;-7.40;99.90;;;;;;4952935;28;20097;-83
2021/12/26 08:22:29;;;;;;;9.43;4.40;;;-7.40;99.90;;;;;;4950829;28;20046;-83
2021/12/26 08:24:55;;;;;;;7.82;3.75;;;-7.40;99.90;;;;;;4952988;28;20054;-82
2021/12/26 08:27:21;;;;;;;7.88;3.70;;;-7.30;99.90;;;;;;4935869;28;20141;-82
2021/12/26 08:29:47;;;;;;;9.47;4.27;;;-7.30;99.90;;;;;;4951777;28;20046;-83
2021/12/26 08:32:15;;;;;;;8.77;4.23;;;-7.30;99.90;;;;;;4951785;28;20051;-83
2021/12/26 08:34:42;;;;;;;8.97;4.37;;;-7.30;99.90;;;;;;4952305;28;20503;-82
2021/12/26 08:37:08;;;;;;;8.18;4.18;;;-7.30;99.90;;;;;;4951917;28;20058;-82
2021/12/26 08:39:36;;;;;;;9.25;4.20;;;-7.30;99.90;;;;;;4952128;28;20131;-82
2021/12/26 08:42:03;;;;;;;8.27;4.30;;;-7.30;99.90;;;;;;4936759;28;20050;-81
2021/12/26 08:44:29;;;;;;;8.40;4.53;;;-7.20;99.90;;;;;;4951658;28;20047;-82
2021/12/26 08:46:55;;;;;;;8.32;4.30;;;-7.60;99.90;;;;;;4986607;28;20445;-82
2021/12/26 08:49:21;;;;;;;8.50;4.80;;;-7.20;99.90;;;;;;4971001;28;20046;-82
2021/12/26 08:51:47;;;;;;;9.57;4.82;;;-7.20;99.90;;;;;;4970240;28;20043;-81
2021/12/26 08:54:13;;;;;;;8.95;4.45;;;-7.10;99.90;;;;;;4971822;28;20042;-81
2021/12/26 08:56:41;;;;;;;10.90;3.90;;;-7.10;99.90;;;;;;4987868;28;20121;-82
2021/12/26 08:59:07;;;;;;;11.95;4.75;;;-7.00;99.90;;;;;;4987929;28;20076;-81
2021/12/26 09:01:34;;;;;;;7.85;4.57;;;-6.90;99.90;;;;;;4973348;28;20041;-81
2021/12/26 09:04:00;;;;;;;10.43;4.40;;;-6.90;99.90;;;;;;4971967;28;20053;-81
2021/12/26 09:06:26;;;;;;;8.65;4.13;;;-6.90;99.90;;;;;;4970112;28;20062;-82
2021/12/26 09:08:51;;;;;;;9.73;5.45;;;-6.80;99.90;;;;;;4983709;28;20042;-83
2021/12/26 09:11:17;;;;;;;8.32;4.55;;;-6.80;99.90;;;;;;4954663;28;20050;-82
2021/12/26 09:13:44;;;;;;;9.40;4.70;;;-6.70;99.90;;;;;;4953520;28;20031;-82
2021/12/26 09:16:11;;;;;;;9.45;4.38;;;-6.60;99.90;;;;;;4970859;28;20042;-82
2021/12/26 09:18:37;;;;;;;8.93;4.32;;;-5.70;99.90;;;;;;4968990;28;20050;-82
2021/12/26 09:21:03;;;;;;;8.23;3.80;;;-6.60;99.90;;;;;;4973659;28;20049;-82
2021/12/26 09:23:29;;;;;;;7.38;3.83;;;-6.50;99.90;;;;;;4958486;28;20030;-82
2021/12/26 09:25:55;;;;;;;9.50;3.90;;;-6.50;99.90;;;;;;4965842;28;20644;-81
2021/12/26 09:30:56;;;;;;;8.35;4.30;;;-6.30;99.90;;;;;;4970396;22;20077;-84
2021/12/26 09:33:22;;;;;;;13.35;3.85;;;-6.30;99.90;;;;;;4973278;28;20493;-84
2021/12/26 09:35:49;;;;;;;14.30;3.72;;;-6.20;99.90;;;;;;4974168;28;20125;-84
2021/12/26 09:38:15;;;;;;;8.95;3.72;;;-6.20;99.90;;;;;;4943380;28;20039;-83
2021/12/26 09:40:41;;;;;;;9.80;4.30;;;-6.10;99.90;;;;;;4970899;28;20061;-83
2021/12/26 09:43:07;;;;;;;9.32;4.03;;;-6.00;99.90;;;;;;4943848;28;20039;-82
2021/12/26 09:45:33;;;;;;;7.93;3.55;;;-5.90;99.90;;;;;;4992038;28;20051;-83
2021/12/26 09:47:58;;;;;;;7.93;3.75;;;-5.90;99.90;;;;;;4983078;28;20122;-84
2021/12/26 09:50:25;;;;;;;8.20;3.92;;;-5.90;99.90;;;;;;4938999;28;20045;-84
2021/12/26 09:52:53;;;;;;;7.65;3.67;;;-5.80;99.90;;;;;;4953858;28;20134;-84
2021/12/26 09:55:20;;;;;;;7.32;3.42;;;-5.70;99.90;;;;;;4952670;28;20511;-84
2021/12/26 09:57:45;;;;;;;7.07;3.72;;;-5.60;99.90;;;;;;4937252;28;20095;-84
2021/12/26 10:00:18;;;;;;;10.77;3.63;;;-5.50;99.90;;;;;;4936564;28;20081;-85
2021/12/26 10:02:44;;;;;;;;;;;-5.50;99.90;;;;;;4950251;28;20049;-83
2021/12/26 10:05:10;;;;;;;7.47;3.50;;;-5.40;99.90;;;;;;4970727;28;19921;-83
2021/12/26 10:07:35;;;;;;;6.07;3.78;;;-5.30;99.90;;;;;;4991721;28;20142;-83
2021/12/26 10:10:06;;;;;;;12.45;4.97;;;-5.30;99.90;;;;;;4975949;28;20046;-83
2021/12/26 10:12:39;;;;;;;6.55;3.60;;;-5.20;99.90;;;;;;4975567;28;20038;-83
2021/12/26 10:15:05;;;;;;;7.25;3.65;;;-5.10;99.90;;;;;;4974636;28;20043;-85
2021/12/26 10:17:31;;;;;;;5.82;3.50;;;-5.00;99.90;;;;;;4973669;28;20054;-85
2021/12/26 10:20:06;;;;;;;6.68;3.72;;;-5.00;99.90;;;;;;4956545;28;20046;-83
2021/12/26 10:22:32;;;;;;;7.25;3.47;;;-4.90;99.90;;;;;;4972988;28;20540;-84
2021/12/26 10:24:58;;;;;;;8.93;3.83;;;-4.90;99.90;;;;;;4962492;28;20068;-85
2021/12/26 10:27:29;;;;;;;9.23;3.80;;;-4.80;99.90;;;;;;4969833;28;20046;-81
2021/12/26 10:29:57;;;;;;;6.45;3.70;;;-3.90;99.90;;;;;;4989180;28;20045;-92
2021/12/26 10:32:26;;;;;;;7.68;3.67;;;-4.00;99.90;;;;;;4976016;28;20085;-91
2021/12/26 10:34:55;;;;;;;12.50;3.88;;;-4.60;99.90;;;;;;4977934;28;20068;-88
2021/12/26 10:37:31;;;;;;;7.70;3.58;;;-4.60;99.90;;;;;;4958861;28;20046;-88
2021/12/26 10:40:03;;;;;;;8.95;3.85;;;-4.50;99.90;;;;;;4953685;28;20057;-79
2021/12/26 10:42:32;;;;;;;7.70;3.35;;;-4.40;99.90;;;;;;4969664;28;20085;-79
2021/12/26 10:45:02;;;;;;;6.95;3.45;;;-4.40;99.90;;;;;;4952252;28;20108;-83
2021/12/26 10:47:32;;;;;;;8.93;4.03;;;-4.30;99.90;;;;;;4979915;28;20064;-82
2021/12/26 10:50:02;;;;;;;7.88;3.60;;;-4.20;99.90;;;;;;4988268;28;20057;-81
2021/12/26 10:52:33;;;;;;;6.80;3.35;;;-4.20;99.90;;;;;;4988719;28;20041;-82
2021/12/26 10:55:01;;;;;;;7.93;3.92;;;-4.20;99.90;;;;;;4987166;28;20058;-83
2021/12/26 10:57:37;;;;;;;7.97;3.97;;;-4.60;99.90;;;;;;4988753;28;20366;-86
2021/12/26 11:00:07;;;;;;;10.68;3.92;;;-4.10;99.90;;;;;;4967609;28;20124;-82
2021/12/26 11:02:43;;;;;;;8.15;4.00;;;-4.00;99.90;;;;;;4975505;28;20486;-82
2021/12/26 11:05:14;;;;;;;7.57;3.67;;;-3.00;99.90;;;;;;4960838;28;20064;-86
2021/12/26 11:07:47;;;;;;;8.57;3.88;;;-4.10;99.90;;;;;;4953149;28;20038;-85
2021/12/26 11:10:24;;;;;;;9.65;4.80;;;-4.10;99.90;;;;;;4984493;28;20054;-87
2021/12/26 11:12:53;;;;;;;8.38;3.90;;;-3.90;99.90;;;;;;4952756;28;20046;-83
2021/12/26 11:15:21;;;;;;;8.23;4.20;;;-3.80;99.90;;;;;;4952082;28;20050;-85
2021/12/26 11:18:17;;;;;;;8.88;3.67;;;-3.00;99.90;;;;;;4952608;28;20050;-87
2021/12/26 11:20:51;;;;;;;8.18;4.07;;;-3.70;99.90;;;;;;4968990;28;20116;-83
2021/12/26 11:23:26;;;;;;;8.10;4.07;;;-3.70;99.90;;;;;;4990979;28;20113;-82
2021/12/26 11:26:10;;;;;;;7.68;4.00;;;-3.60;99.90;;;;;;4950198;28;20058;-86
2021/12/26 11:28:40;;;;;;;8.98;4.32;;;-3.60;99.90;;;;;;4952772;28;20489;-87
2021/12/26 11:31:07;;;;;;;7.03;4.18;;;-3.50;99.90;;;;;;4969016;28;20560;-87
2021/12/26 11:33:34;;;;;;;7.20;3.78;;;-3.50;99.90;;;;;;4961317;28;20085;-87
2021/12/26 11:36:03;;;;;;;9.00;4.53;;;-3.40;99.90;;;;;;4972445;28;20500;-87
2021/12/26 11:38:30;;;;;;;8.60;3.85;;;-3.30;99.90;;;;;;4975452;28;20046;-95
2021/12/26 11:41:01;;;;;;;7.38;3.70;;;-1.50;99.90;;;;;;4989554;28;20053;-91
2021/12/26 11:43:47;;;;;;;8.23;4.15;;;-3.20;99.90;;;;;;4970832;28;20152;-90
2021/12/26 11:46:46;;;;;;;10.63;3.70;;;-3.20;99.90;;;;;;4970205;28;20052;-87
2021/12/26 11:49:36;;;;;;;8.43;4.00;;;-3.10;99.90;;;;;;4953458;28;20105;-90
2021/12/26 11:52:19;;;;;;;7.43;3.83;;;-3.00;99.90;;;;;;4955892;28;20092;-88
2021/12/26 11:55:14;;;;;;;9.70;4.00;;;-3.00;99.90;;;;;;4979352;28;20044;-89
2021/12/26 11:58:20;;;;;;;8.15;4.07;;;-3.00;99.90;;;;;;4963398;28;20044;-88
2021/12/26 12:00:50;;;;;;;7.68;4.00;;;-2.90;99.90;;;;;;4978295;28;20050;-87
2021/12/26 12:03:20;;;;;;;9.02;3.75;;;-2.80;99.90;;;;;;4961587;28;20156;-89
2021/12/26 12:05:47;;;;;;;6.70;3.72;;;-1.70;99.90;;;;;;4966562;28;20054;-84
2021/12/26 12:08:14;;;;;;;7.13;3.75;;;-1.40;99.90;;;;;;4968444;28;20042;-84
2021/12/26 12:10:46;;;;;;;7.65;3.92;;;-2.70;99.90;;;;;;4977008;28;20052;-85
2021/12/26 12:13:22;;;;;;;7.38;4.15;;;-2.70;99.90;;;;;;4986098;28;20377;-91
2021/12/26 12:15:52;;;;;;;10.60;4.45;;;-2.60;99.90;;;;;;4975398;28;20134;-92
2021/12/26 12:18:25;;;;;;;12.07;4.38;;;-2.60;99.90;;;;;;4974838;28;20057;-86
2021/12/26 12:21:06;;;;;;;7.78;4.00;;;-2.50;99.90;;;;;;4975348;28;20084;-86
2021/12/26 12:23:32;;;;;;;6.63;3.50;;;-2.50;99.90;;;;;;4990937;28;20487;-85
2021/12/26 12:25:58;;;;;;;8.95;3.80;;;-2.50;99.90;;;;;;4990933;28;20054;-85
2021/12/26 12:28:26;;;;;;;7.22;3.60;;;-2.40;99.90;;;;;;4990839;28;20049;-86
2021/12/26 12:30:56;;;;;;;8.63;3.65;;;-2.40;99.90;;;;;;5006212;28;20515;-84
2021/12/26 12:33:31;;;;;;;8.77;3.55;;;-2.30;99.90;;;;;;4973095;28;20120;-83
2021/12/26 12:36:03;;;;;;;7.60;3.75;;;-2.30;99.90;;;;;;4972196;28;20476;-82
2021/12/26 12:38:39;;;;;;;7.25;3.42;;;-2.30;99.90;;;;;;4955022;28;20133;-84
2021/12/26 12:41:09;;;;;;;6.68;3.83;;;-2.20;99.90;;;;;;4955443;28;20050;-80
2021/12/26 12:43:46;;;;;;;6.20;3.53;;;-2.20;99.90;;;;;;4988678;28;20054;-85
2021/12/26 12:46:12;;;;;;;9.82;3.60;;;-2.20;99.90;;;;;;4970596;28;20397;-85
2021/12/26 12:48:44;;;;;;;10.52;3.80;;;-2.10;99.90;;;;;;4953792;28;20466;-84
2021/12/26 12:51:14;;;;;;;8.88;3.80;;;-2.10;99.90;;;;;;4955047;28;20057;-84
2021/12/26 12:53:41;;;;;;;8.02;3.85;;;-2.10;99.90;;;;;;4954436;28;20093;-88